Aérodrome :
LOGIN :

S'inscrire | Disclaimer

   EN    FR    IT 

 










Légende :    VFR   VFR Marginal   IFR   IFR Intensif   IFR Très Intensif
Visi : 
Plafond : 
>= 8 km
>= 3000ft
5 à 8 km
1000 à 3000 ft
1500m à 5 km
500 à 1000 ft
800 à 1500m
200 à 500 ft
< 800m
< 200 ft
Symboles :   Orages  Brouillard  Fortes neiges  Fortes précipitations  Vent > 20 kt
SIGMETs :   Divers  Orages  Givrage  Turbulence  Onde Orograph.  Cendres Volcan.






- Altitude de l'aérodrome : 408 ft
- Code IATA : SOB


LHSM - Sarmellek Balaton

DERNIER METAR :
  • 092015Z AUTO 33010KT 5000 -RA OVC034 //////TCU 04/04 Q1010

METARs EXPIRÉS :
  • 091945Z AUTO 33011KT 5000 -RA BR OVC032 //////TCU 04/04 Q1009
  • 091915Z AUTO 33010KT 4900 -RA BR OVC033 //////TCU 04/04 Q1009
  • 091845Z AUTO 33010KT 4700 -RA BR OVC034 //////TCU 04/03 Q1009 RERA
  • 091815Z AUTO 33007KT 4800 -RA BR OVC031 //////TCU 04/04 Q1009 RERA
  • 091745Z AUTO 32007KT 4200 -RA OVC028 //////TCU 04/04 Q1009

TAF AMD TAF LHSM
Valide du 09 à 14h jusqu'au 09 à 21h UTC


091405Z 0914/0921 VRB03KT 5000 -RA BR BKN045
TEMPO 0915/0921 3000 RA BR BKN010 OVC050



MET'MAP, la Météo Aéronautique d'un coup d'oeil ! - Copyright ORBIFLY Décembre 2007 - Disclaimer

ORBIFLY MET'MAP TEAM :

Programmation & Développement : Alexandra Zaïnal
Sur une idée originale de : Baudouin d'Aumeries
Assistance à la programmation : Marc-Olivier Méhu
Soutien technique & logistique : Manuel Goepfert

Contact : metmap@orbifly.com




SOURCES & CREDITS :

   NOAA